Weather reports worldwide

Advertisment
Lus-La-Croix-Haute, France (7587): temperature & dewpoint: 19.06.2018 04:00:00 - 25.06.2018 04:00:00 (CEST)Lus-La-Croix-Haute, France (7587): wind speed & gusts: 19.06.2018 04:00:00 - 25.06.2018 04:00:00 (CEST)Lus-La-Croix-Haute, France (7587): wind direction: 19.06.2018 04:00:00 - 25.06.2018 04:00:00 (CEST)Lus-La-Croix-Haute, France (7587): precipitation: 19.06.2018 04:00:00 - 25.06.2018 04:00:00 (CEST)
Date & Time tt [°C] td [°C] ff [km/h] ff [kn] fx [km/h] fx [kn] dd rr [mm]
25.06.2018 04:00:00 12,2 8,8 11 6 29 16 NNW 0,0
25.06.2018 03:00:00 12,1 8,9 11 6 22 12 NW 0,0
25.06.2018 02:00:00 12,1 8,9 9 5 22 12 NNW -
25.06.2018 01:00:00 12,5 9,1 5 3 18 10 N 0,0
25.06.2018 00:00:00 13,4 9,6 4 2 13 7 NNE 0,0
24.06.2018 23:00:00 14,1 9,7 11 6 28 15 NNW 0,0
24.06.2018 22:00:00 15,4 9,3 11 6 35 19 NNW 0,0
24.06.2018 21:00:00 16,4 9,3 11 6 31 17 NNW 0,0
24.06.2018 20:00:00 17,5 9,1 15 8 37 20 NNW -
24.06.2018 19:00:00 20,6 10,4 13 7 37 20 NW 0,0
24.06.2018 18:00:00 21,4 10,5 15 8 39 21 NNW 0,0
24.06.2018 17:00:00 21,9 11,3 18 10 41 22 NW 0,0
24.06.2018 16:00:00 22,2 12,7 16 9 41 22 NW 0,0
24.06.2018 15:00:00 21,5 12,4 24 13 37 20 WNW 0,0
24.06.2018 14:00:00 22,1 11,2 21 11 35 19 WNW -
24.06.2018 13:00:00 20,5 11,7 9 5 22 12 WNW 0,0
24.06.2018 12:00:00 20,5 10,9 5 3 16 9 SSE 0,0
24.06.2018 11:00:00 17,6 9,5 5 3 18 10 WSW 0,0
24.06.2018 10:00:00 14,5 8,2 5 3 13 7 W 0,0
24.06.2018 09:00:00 14,8 7,3 4 2 9 5 SE 0,0
24.06.2018 08:00:00 12,0 8,8 4 2 9 5 SSE -
24.06.2018 07:00:00 9,9 7,3 2 1 8 4 NNE 0,0
24.06.2018 06:00:00 9,8 6,5 2 1 8 4 S 0,0
24.06.2018 05:00:00 10,7 6,4 4 2 8 4 N 0,0
24.06.2018 04:00:00 10,9 6,8 4 2 16 9 ENE 0,0
24.06.2018 03:00:00 11,7 7,0 9 5 22 12 NNW 0,0
24.06.2018 02:00:00 12,2 6,9 2 1 15 8 N -
24.06.2018 01:00:00 12,2 7,5 2 1 21 11 NNE 0,0
24.06.2018 00:00:00 13,2 7,6 5 3 15 8 N 0,0
23.06.2018 23:00:00 13,4 7,8 5 3 16 9 N 0,0
23.06.2018 22:00:00 14,1 7,8 8 4 24 13 N 0,0
23.06.2018 21:00:00 15,7 7,5 11 6 29 16 NNW 0,0
23.06.2018 20:00:00 18,4 8,4 16 9 39 21 NW -
23.06.2018 19:00:00 19,6 8,3 18 10 41 22 NNW 0,0
23.06.2018 18:00:00 20,6 8,9 18 10 37 20 NNW 0,0
23.06.2018 17:00:00 21,2 9,7 13 7 39 21 NW 0,0
23.06.2018 16:00:00 21,3 9,8 21 11 41 22 NW 0,0
23.06.2018 15:00:00 21,4 4,9 13 7 34 18 NNW 0,0
23.06.2018 14:00:00 20,5 3,7 16 9 34 18 NNW -
23.06.2018 13:00:00 19,7 7,7 15 8 34 18 NNW 0,0
23.06.2018 12:00:00 18,4 9,2 13 7 37 20 NW 0,0
23.06.2018 11:00:00 16,7 7,6 16 9 29 16 WNW 0,0
23.06.2018 10:00:00 14,7 7,3 9 5 15 8 SSE 0,0
23.06.2018 09:00:00 13,8 5,9 4 2 8 4 ESE 0,0
23.06.2018 08:00:00 9,9 5,9 4 2 9 5 E -
23.06.2018 07:00:00 7,8 4,6 4 2 9 5 E 0,0
23.06.2018 06:00:00 7,2 4,2 4 2 9 5 NNE 0,0
23.06.2018 05:00:00 7,6 4,0 5 3 13 7 NNE 0,0
23.06.2018 04:00:00 8,6 4,0 4 2 22 12 ENE 0,0
23.06.2018 03:00:00 9,8 4,0 9 5 29 16 NNW 0,0
23.06.2018 02:00:00 10,8 3,8 8 4 35 19 N -
23.06.2018 01:00:00 11,2 4,2 18 10 34 18 NNW 0,0
23.06.2018 00:00:00 11,7 4,2 13 7 31 17 NNW 0,0
22.06.2018 23:00:00 12,3 4,3 8 4 28 15 NNW 0,0
22.06.2018 22:00:00 13,8 4,6 4 2 48 26 NW 0,0
22.06.2018 21:00:00 15,0 4,1 13 7 59 32 N 0,0
22.06.2018 20:00:00 16,9 4,9 18 10 70 38 NNW -
22.06.2018 19:00:00 17,9 6,4 22 12 55 30 NNW 0,0
22.06.2018 18:00:00 18,5 8,2 22 12 61 33 NNW 0,0
22.06.2018 17:00:00 18,0 9,6 18 10 65 35 NNW 0,0
22.06.2018 16:00:00 19,0 11,1 26 14 65 35 NW 0,0
22.06.2018 15:00:00 19,0 11,8 26 14 55 30 NW 0,0
22.06.2018 14:00:00 16,5 10,1 18 10 54 29 NW -
22.06.2018 13:00:00 15,3 9,6 21 11 59 32 NNW 0,0
22.06.2018 12:00:00 13,8 9,6 26 14 57 31 NNW 0,0
22.06.2018 11:00:00 14,8 10,4 26 14 55 30 NNW 0,0
22.06.2018 10:00:00 15,8 11,2 26 14 55 30 NNW 0,0
22.06.2018 09:00:00 13,8 10,8 18 10 41 22 NW 0,0
22.06.2018 08:00:00 14,2 10,8 18 10 44 24 NNW -
22.06.2018 07:00:00 14,9 11,5 15 8 37 20 NNW 0,0
22.06.2018 06:00:00 15,3 11,7 16 9 42 23 NNW 0,0
22.06.2018 05:00:00 16,2 11,6 11 6 48 26 N 0,0
22.06.2018 04:00:00 16,7 11,6 11 6 37 20 NNE 0,0
22.06.2018 03:00:00 17,2 11,9 11 6 37 20 ENE 0,0
22.06.2018 02:00:00 17,7 11,3 15 8 46 25 N -
22.06.2018 01:00:00 18,2 10,8 13 7 59 32 N 0,0
22.06.2018 00:00:00 18,7 11,0 18 10 55 30 N 0,0
21.06.2018 23:00:00 19,0 10,8 15 8 39 21 N 0,0
21.06.2018 22:00:00 19,3 11,6 13 7 34 18 NNW 0,0
21.06.2018 21:00:00 21,0 12,2 13 7 39 21 NNW 0,0
21.06.2018 20:00:00 23,3 12,9 15 8 39 21 NNW -
21.06.2018 19:00:00 24,9 12,8 13 7 48 26 N 0,0
21.06.2018 18:00:00 25,7 13,5 18 10 39 21 NNW 0,0
21.06.2018 17:00:00 26,0 15,4 16 9 39 21 NNW 0,0
21.06.2018 16:00:00 25,9 15,0 21 11 44 24 NNW 0,0
21.06.2018 15:00:00 25,7 16,3 16 9 41 22 NW 0,0
21.06.2018 14:00:00 25,3 15,6 16 9 41 22 NW -
21.06.2018 13:00:00 24,7 15,1 16 9 39 21 NNW 0,0
21.06.2018 12:00:00 24,1 13,9 8 4 24 13 N 0,0
21.06.2018 11:00:00 22,8 16,8 8 4 18 10 WNW 0,0
21.06.2018 10:00:00 19,2 17,9 2 1 8 4 SE 0,0
21.06.2018 09:00:00 15,2 15,0 2 1 5 3 SSW 0,0
21.06.2018 08:00:00 13,8 13,6 2 1 5 3 ESE -
21.06.2018 07:00:00 13,4 13,2 2 1 4 2 WSW 0,0
21.06.2018 06:00:00 13,3 13,1 4 2 5 3 N 0,0
21.06.2018 05:00:00 13,5 13,3 4 2 8 4 NNE 0,0
21.06.2018 04:00:00 13,9 13,7 0 0 4 2 WNW 0,2
21.06.2018 03:00:00 13,9 13,7 2 1 5 3 WNW 0,0
21.06.2018 02:00:00 14,1 13,9 2 1 5 3 SSE -
21.06.2018 01:00:00 14,2 13,9 2 1 5 3 N 0,0
21.06.2018 00:00:00 14,6 14,3 4 2 8 4 NNE 0,0
20.06.2018 23:00:00 15,3 14,7 4 2 5 3 ENE 0,0
20.06.2018 22:00:00 15,8 14,8 2 1 5 3 SSW 0,0
20.06.2018 21:00:00 17,1 15,4 2 1 8 4 SW 0,0
20.06.2018 20:00:00 16,8 15,3 2 1 13 7 NW -
20.06.2018 19:00:00 15,9 14,6 8 4 35 19 WNW 4,0
20.06.2018 18:00:00 18,6 14,1 8 4 37 20 SSE 0,0
20.06.2018 17:00:00 21,3 13,5 18 10 41 22 S 0,0
20.06.2018 16:00:00 24,0 15,5 15 8 28 15 NW 0,0
20.06.2018 15:00:00 27,0 12,6 9 5 22 12 WNW 0,0
20.06.2018 14:00:00 27,6 12,4 8 4 22 12 SW -
20.06.2018 13:00:00 27,1 12,3 8 4 21 11 ESE 0,0
20.06.2018 12:00:00 25,7 11,8 13 7 26 14 S 0,0
20.06.2018 11:00:00 24,3 10,9 11 6 21 11 S 0,0
20.06.2018 10:00:00 20,3 15,3 2 1 8 4 W 0,0
20.06.2018 09:00:00 16,3 14,5 4 2 8 4 SSE 0,0
20.06.2018 08:00:00 13,2 13,0 2 1 4 2 N -
20.06.2018 07:00:00 11,6 11,3 2 1 4 2 SW 0,0
20.06.2018 06:00:00 11,7 11,4 0 0 4 2 ESE 0,0
20.06.2018 05:00:00 12,1 11,6 2 1 5 3 ESE 0,0
20.06.2018 04:00:00 12,7 12,1 0 0 5 3 NE 0,0
20.06.2018 03:00:00 13,2 12,4 4 2 8 4 S 0,0
20.06.2018 02:00:00 14,1 12,7 4 2 8 4 SE -
20.06.2018 01:00:00 14,8 13,2 4 2 11 6 ESE 0,0
20.06.2018 00:00:00 15,6 13,4 4 2 11 6 NNE 0,0
19.06.2018 23:00:00 16,8 13,5 5 3 13 7 NNE 0,0
19.06.2018 22:00:00 17,3 13,8 5 3 24 13 N 0,0
19.06.2018 21:00:00 19,0 14,3 13 7 34 18 NNW 0,0
19.06.2018 20:00:00 21,3 14,2 16 9 35 19 NW -
19.06.2018 19:00:00 23,0 14,3 18 10 41 22 NW 0,0
19.06.2018 18:00:00 22,8 15,1 22 12 44 24 NW 0,0
19.06.2018 17:00:00 24,4 15,9 18 10 41 22 NW 0,0
19.06.2018 16:00:00 24,3 16,0 22 12 41 22 WNW 0,0
19.06.2018 15:00:00 24,2 14,6 18 10 41 22 NW 0,0
19.06.2018 14:00:00 23,0 13,7 21 11 41 22 NW -
19.06.2018 13:00:00 22,6 12,8 18 10 37 20 WNW 0,0
19.06.2018 12:00:00 20,8 13,3 21 11 39 21 WNW 0,0
19.06.2018 11:00:00 19,6 13,3 16 9 29 16 WNW 0,0
19.06.2018 10:00:00 18,4 12,4 9 5 29 16 NW 0,0
19.06.2018 09:00:00 17,0 11,9 5 3 16 9 WSW 0,0
19.06.2018 08:00:00 14,2 11,2 4 2 9 5 SE -
19.06.2018 07:00:00 13,7 11,2 4 2 16 9 NNW 0,0
19.06.2018 06:00:00 13,0 10,7 5 3 16 9 N 0,0
19.06.2018 05:00:00 13,8 11,0 8 4 26 14 NNW 0,0
19.06.2018 04:00:00 13,9 11,1 11 6 22 12 NNW 0,0

tt = temperature
td = dewpoint
ff = wind speed
fx = gusts
dd = wind direction
rr = precipitation

Next stations